createdAt,value
2019-04-28T00:00:44.641Z,10.17
2019-04-28T00:03:13.595Z,10.20
2019-04-28T00:05:42.479Z,10.33
2019-04-28T00:08:11.460Z,9.83
2019-04-28T00:10:41.820Z,10.50
2019-04-28T00:13:11.336Z,9.87
2019-04-28T00:15:41.688Z,10.10
2019-04-28T00:18:11.905Z,10.50
2019-04-28T00:20:58.633Z,10.10
2019-04-28T00:23:51.197Z,10.07
2019-04-28T00:26:40.957Z,9.80
2019-04-28T00:29:11.138Z,9.03
2019-04-28T00:31:41.357Z,9.30
2019-04-28T00:34:11.459Z,8.93
2019-04-28T00:36:43.026Z,8.53
2019-04-28T00:39:12.416Z,8.80
2019-04-28T00:41:42.033Z,7.97
2019-04-28T00:44:11.935Z,9.07
2019-04-28T00:46:41.968Z,7.60
2019-04-28T00:49:11.821Z,8.30
2019-04-28T00:51:41.590Z,9.10
2019-04-28T00:54:12.158Z,8.30
2019-04-28T00:56:41.842Z,9.10
2019-04-28T00:59:11.816Z,8.80
2019-04-28T01:01:51.306Z,8.80
2019-04-28T01:04:21.898Z,9.03
2019-04-28T01:06:52.049Z,8.97
2019-04-28T01:09:21.901Z,10.00
2019-04-28T01:11:53.401Z,9.03
2019-04-28T01:14:21.681Z,9.00
2019-04-28T01:17:00.278Z,9.40
2019-04-28T01:19:32.567Z,10.00
2019-04-28T01:22:16.336Z,10.90
2019-04-28T01:24:45.410Z,10.10
2019-04-28T01:27:36.518Z,9.90
2019-04-28T01:30:11.367Z,10.07
2019-04-28T01:32:46.012Z,9.97
2019-04-28T01:35:15.269Z,10.50
2019-04-28T01:37:44.266Z,10.60
2019-04-28T01:40:13.295Z,10.30
2019-04-28T01:42:42.146Z,10.63
2019-04-28T01:45:11.372Z,11.30
2019-04-28T01:47:40.626Z,11.70
2019-04-28T01:50:10.191Z,11.37
2019-04-28T01:52:39.946Z,11.43
2019-04-28T01:55:10.147Z,11.93
2019-04-28T01:57:40.002Z,11.33
2019-04-28T02:00:22.345Z,11.83
2019-04-28T02:02:42.886Z,11.43
2019-04-28T02:05:11.903Z,12.70
2019-04-28T02:07:40.929Z,13.00
2019-04-28T02:10:10.377Z,12.47
2019-04-28T02:12:40.312Z,12.73
2019-04-28T02:15:10.464Z,13.13
2019-04-28T02:17:40.178Z,12.43
2019-04-28T02:20:10.398Z,13.00
2019-04-28T02:22:45.311Z,13.13
2019-04-28T02:25:14.410Z,13.57
2019-04-28T02:27:43.215Z,13.47
2019-04-28T02:30:12.607Z,13.47
2019-04-28T02:32:41.594Z,14.10
2019-04-28T02:35:10.980Z,14.20
2019-04-28T02:37:40.580Z,14.30
2019-04-28T02:40:10.820Z,14.20
2019-04-28T02:42:40.931Z,14.57
2019-04-28T02:45:11.665Z,14.20
2019-04-28T02:47:41.980Z,15.00
2019-04-28T02:50:21.246Z,14.17
2019-04-28T02:52:57.895Z,15.23
2019-04-28T02:55:26.804Z,16.27
2019-04-28T02:57:55.686Z,14.97
2019-04-28T03:00:24.603Z,15.60
2019-04-28T03:02:53.552Z,15.73
2019-04-28T03:05:22.632Z,16.17
2019-04-28T03:07:51.937Z,16.20
2019-04-28T03:10:21.650Z,16.33
2019-04-28T03:12:51.809Z,17.43
2019-04-28T03:15:21.245Z,16.23
2019-04-28T03:17:52.967Z,17.70
2019-04-28T03:20:21.301Z,17.87
2019-04-28T03:22:51.191Z,17.30
2019-04-28T03:25:40.820Z,17.53
2019-04-28T03:28:33.612Z,17.30
2019-04-28T03:31:36.699Z,17.97
2019-04-28T03:33:47.301Z,17.97
2019-04-28T03:36:15.450Z,17.50
2019-04-28T03:38:41.870Z,17.57
2019-04-28T03:41:11.361Z,17.37
2019-04-28T03:43:40.733Z,17.60
2019-04-28T03:46:15.118Z,17.60
2019-04-28T03:48:44.003Z,17.40
2019-04-28T03:51:13.478Z,17.33
2019-04-28T03:53:42.689Z,17.10
2019-04-28T03:56:11.559Z,17.03
2019-04-28T03:58:40.748Z,17.43
2019-04-28T04:01:10.820Z,16.33
2019-04-28T04:03:41.696Z,16.80
2019-04-28T04:06:10.759Z,17.20
2019-04-28T04:08:40.766Z,17.57
2019-04-28T04:11:15.555Z,16.40
2019-04-28T04:13:51.213Z,16.57
2019-04-28T04:16:30.769Z,17.60
2019-04-28T04:19:00.738Z,16.50
2019-04-28T04:21:30.970Z,16.20
2019-04-28T04:24:01.048Z,16.33
2019-04-28T04:26:32.874Z,16.00
2019-04-28T04:29:01.164Z,15.57
2019-04-28T04:31:31.793Z,15.10
2019-04-28T04:34:03.084Z,15.60
2019-04-28T04:36:31.386Z,13.80
2019-04-28T04:39:01.699Z,15.03
2019-04-28T04:41:31.058Z,14.93
2019-04-28T04:44:01.198Z,14.50
2019-04-28T04:46:31.389Z,15.73
2019-04-28T04:49:00.983Z,16.53
2019-04-28T04:51:30.970Z,15.60
2019-04-28T04:54:01.199Z,15.47
2019-04-28T04:56:30.519Z,16.13
2019-04-28T04:59:02.182Z,15.20
2019-04-28T05:01:50.208Z,16.00
2019-04-28T05:04:26.034Z,15.60
2019-04-28T05:06:54.884Z,13.83
2019-04-28T05:09:23.771Z,12.00
2019-04-28T05:11:52.602Z,12.30
2019-04-28T05:14:21.494Z,11.97
2019-04-28T05:16:50.348Z,11.60
2019-04-28T05:19:19.902Z,11.90
2019-04-28T05:21:49.802Z,10.70
2019-04-28T05:24:30.450Z,10.00
2019-04-28T05:26:59.631Z,10.10
2019-04-28T05:29:30.435Z,10.27
2019-04-28T05:32:03.155Z,10.33
2019-04-28T05:34:30.067Z,9.50
2019-04-28T05:37:00.562Z,9.40
2019-04-28T05:39:29.856Z,9.53
2019-04-28T05:42:00.663Z,8.80
2019-04-28T05:44:29.908Z,9.20
2019-04-28T05:47:00.051Z,9.00
2019-04-28T05:49:46.929Z,8.20
2019-04-28T05:52:34.025Z,8.73
2019-04-28T05:55:10.277Z,8.43
2019-04-28T05:57:43.639Z,8.10
2019-04-28T06:00:33.563Z,8.50
2019-04-28T06:03:02.896Z,7.83
2019-04-28T06:05:32.044Z,8.60
2019-04-28T06:08:30.323Z,8.50
2019-04-28T06:10:59.905Z,8.03
2019-04-28T06:13:30.296Z,8.60
2019-04-28T06:15:59.869Z,7.93
2019-04-28T06:18:30.721Z,7.67
2019-04-28T06:20:59.864Z,8.23
2019-04-28T06:23:28.729Z,8.10
2019-04-28T06:25:57.655Z,7.33
2019-04-28T06:28:27.005Z,8.33
2019-04-28T06:30:55.875Z,7.37
2019-04-28T06:33:25.025Z,8.00
2019-04-28T06:35:53.939Z,8.27
2019-04-28T06:38:22.856Z,7.90
2019-04-28T06:40:51.819Z,7.47
2019-04-28T06:43:20.707Z,7.37
2019-04-28T06:45:49.533Z,8.33
2019-04-28T06:48:18.447Z,7.10
2019-04-28T06:50:47.342Z,7.57
2019-04-28T06:53:16.182Z,6.93
2019-04-28T06:55:45.074Z,6.73
2019-04-28T06:58:13.931Z,6.77
2019-04-28T07:00:42.731Z,6.60
2019-04-28T07:03:22.658Z,6.53
2019-04-28T07:05:42.239Z,6.43
2019-04-28T07:08:13.796Z,7.13
2019-04-28T07:10:41.632Z,6.40
2019-04-28T07:13:10.543Z,6.70
2019-04-28T07:15:39.347Z,7.13
2019-04-28T07:18:08.185Z,7.43
2019-04-28T07:20:49.578Z,7.20
2019-04-28T07:23:18.506Z,7.03
2019-04-28T07:25:47.304Z,6.90
2019-04-28T07:28:16.142Z,7.57
2019-04-28T07:30:45.044Z,6.07
2019-04-28T07:33:13.943Z,6.63
2019-04-28T07:35:42.774Z,7.07
2019-04-28T07:38:11.674Z,6.90
2019-04-28T07:40:40.566Z,7.27
2019-04-28T07:43:09.549Z,6.67
2019-04-28T07:45:38.370Z,7.40
2019-04-28T07:48:07.332Z,6.53
2019-04-28T07:50:36.302Z,7.17
2019-04-28T07:53:14.379Z,6.80
2019-04-28T07:55:43.345Z,6.43
2019-04-28T07:58:12.234Z,6.90
2019-04-28T08:00:41.219Z,7.60
2019-04-28T08:03:10.114Z,7.37
2019-04-28T08:05:38.964Z,6.93
2019-04-28T08:08:07.778Z,6.83
2019-04-28T08:10:36.717Z,7.33
2019-04-28T08:13:05.615Z,7.70
2019-04-28T08:15:34.599Z,6.77
2019-04-28T08:18:04.250Z,7.60
2019-04-28T08:20:33.463Z,7.70
2019-04-28T08:23:02.354Z,8.17
2019-04-28T08:25:31.177Z,7.27
2019-04-28T08:28:00.394Z,7.73
2019-04-28T08:30:29.297Z,7.90
2019-04-28T08:33:14.994Z,7.13
2019-04-28T08:35:43.994Z,9.40
2019-04-28T08:38:12.804Z,7.70
2019-04-28T08:40:41.790Z,7.90
2019-04-28T08:43:10.611Z,9.03
2019-04-28T08:45:39.460Z,7.53
2019-04-28T08:48:08.348Z,7.83
2019-04-28T08:50:37.179Z,7.90
2019-04-28T08:53:06.079Z,7.93
2019-04-28T08:55:35.088Z,8.00
2019-04-28T08:58:04.007Z,8.37
2019-04-28T09:00:32.916Z,7.13
2019-04-28T09:03:01.725Z,6.77
2019-04-28T09:05:30.624Z,7.33
2019-04-28T09:07:59.460Z,6.60
2019-04-28T09:10:28.530Z,6.50
2019-04-28T09:12:57.357Z,6.77
2019-04-28T09:15:26.247Z,7.57
2019-04-28T09:17:55.216Z,7.93
2019-04-28T09:20:24.122Z,7.50
2019-04-28T09:22:53.119Z,6.30
2019-04-28T09:25:22.088Z,6.67
2019-04-28T09:27:50.918Z,6.23
2019-04-28T09:30:19.962Z,5.80
2019-04-28T09:32:48.863Z,6.23
2019-04-28T09:35:17.766Z,6.67
2019-04-28T09:37:46.579Z,6.33
2019-04-28T09:40:16.511Z,6.50
2019-04-28T09:43:16.587Z,6.27
2019-04-28T09:45:50.955Z,5.77
2019-04-28T09:48:19.871Z,5.50
2019-04-28T09:50:48.800Z,4.60
2019-04-28T09:53:17.687Z,5.27
2019-04-28T09:55:46.571Z,5.00
2019-04-28T09:58:15.387Z,5.00
2019-04-28T10:00:44.194Z,4.70
2019-04-28T10:03:13.024Z,4.80
2019-04-28T10:05:41.830Z,4.87
2019-04-28T10:08:10.802Z,4.17
2019-04-28T10:10:39.679Z,4.13
2019-04-28T10:13:08.507Z,4.90
2019-04-28T10:15:37.322Z,4.63
2019-04-28T10:18:06.210Z,4.63
2019-04-28T10:20:35.342Z,4.27
2019-04-28T10:23:04.434Z,4.10
2019-04-28T10:25:33.521Z,5.10
2019-04-28T10:28:02.455Z,5.23
2019-04-28T10:30:31.625Z,4.90
2019-04-28T10:33:00.570Z,4.40
2019-04-28T10:35:29.447Z,4.30
2019-04-28T10:37:58.367Z,4.00
2019-04-28T10:40:42.170Z,3.77
2019-04-28T10:43:11.223Z,3.70
2019-04-28T10:45:48.359Z,3.97
2019-04-28T10:48:17.626Z,4.00
2019-04-28T10:50:46.710Z,4.60
2019-04-28T10:53:15.763Z,3.90
2019-04-28T10:55:44.577Z,4.00
2019-04-28T10:58:13.550Z,4.50
2019-04-28T11:00:42.999Z,5.43
2019-04-28T11:03:11.963Z,5.67
2019-04-28T11:05:42.472Z,4.60
2019-04-28T11:08:20.465Z,4.90
2019-04-28T11:10:49.355Z,5.17
2019-04-28T11:13:18.398Z,5.17
2019-04-28T11:15:47.367Z,5.00
2019-04-28T11:18:16.790Z,4.40
2019-04-28T11:20:45.774Z,3.17
2019-04-28T11:23:14.670Z,2.70
2019-04-28T11:25:44.636Z,3.00
2019-04-28T11:28:20.281Z,3.60
2019-04-28T11:30:49.222Z,3.33
2019-04-28T11:33:32.501Z,4.07
2019-04-28T11:36:01.415Z,4.03
2019-04-28T11:38:30.379Z,3.90
2019-04-28T11:40:59.310Z,3.53
2019-04-28T11:43:28.375Z,3.83
2019-04-28T11:45:57.392Z,3.70
2019-04-28T11:48:26.367Z,3.60
2019-04-28T11:50:55.271Z,3.10
2019-04-28T11:53:24.090Z,3.50
2019-04-28T11:55:53.001Z,4.33
2019-04-28T11:58:21.826Z,3.40
2019-04-28T12:00:50.735Z,3.50
2019-04-28T12:03:19.550Z,3.30
2019-04-28T12:05:48.628Z,3.93
2019-04-28T12:08:17.465Z,4.23
2019-04-28T12:10:51.906Z,3.73
2019-04-28T12:13:37.679Z,4.30
2019-04-28T12:16:25.591Z,4.47
2019-04-28T12:19:16.319Z,4.70
2019-04-28T12:21:45.372Z,5.37
2019-04-28T12:24:14.305Z,5.07
2019-04-28T12:26:46.036Z,4.83
2019-04-28T12:29:14.908Z,4.77
2019-04-28T12:31:43.807Z,4.67
2019-04-28T12:34:12.807Z,5.13
2019-04-28T12:36:41.651Z,5.43
2019-04-28T12:39:10.553Z,5.40
2019-04-28T12:41:39.405Z,4.97
2019-04-28T12:44:08.372Z,5.60
2019-04-28T12:46:37.266Z,5.70
2019-04-28T12:49:16.272Z,5.87
2019-04-28T12:51:46.350Z,5.20
2019-04-28T12:54:17.126Z,5.63
2019-04-28T12:56:46.028Z,5.40
2019-04-28T12:59:20.124Z,5.40
2019-04-28T13:02:07.098Z,4.57
2019-04-28T13:04:42.322Z,4.93
2019-04-28T13:07:11.158Z,5.50
2019-04-28T13:09:40.118Z,5.00
2019-04-28T13:12:09.088Z,5.40
2019-04-28T13:14:37.976Z,5.60
2019-04-28T13:17:06.895Z,6.37
2019-04-28T13:19:35.873Z,6.23
2019-04-28T13:22:05.586Z,6.20
2019-04-28T13:24:34.752Z,7.10
2019-04-28T13:27:03.829Z,6.80
2019-04-28T13:29:32.689Z,7.00
2019-04-28T13:32:01.600Z,7.27
2019-04-28T13:34:32.212Z,7.83
2019-04-28T13:37:01.148Z,7.57
2019-04-28T13:39:35.526Z,6.63
2019-04-28T13:42:04.455Z,7.93
2019-04-28T13:44:52.475Z,7.10
2019-04-28T13:47:21.821Z,7.20
2019-04-28T13:49:54.060Z,7.80
2019-04-28T13:52:23.038Z,7.60
2019-04-28T13:54:54.788Z,8.40
2019-04-28T13:57:23.671Z,8.67
2019-04-28T13:59:55.698Z,8.97
2019-04-28T14:02:42.660Z,7.90
2019-04-28T14:05:22.483Z,7.50
2019-04-28T14:07:51.405Z,7.63
2019-04-28T14:10:20.354Z,7.67
2019-04-28T14:12:49.186Z,7.80
2019-04-28T14:15:18.154Z,7.50
2019-04-28T14:17:46.994Z,7.93
2019-04-28T14:20:15.958Z,8.67
2019-04-28T14:22:44.786Z,8.37
2019-04-28T14:25:13.873Z,7.83
2019-04-28T14:27:42.746Z,7.27
2019-04-28T14:30:11.781Z,6.00
2019-04-28T14:32:40.635Z,5.33
2019-04-28T14:35:09.590Z,5.80
2019-04-28T14:37:38.472Z,5.00
2019-04-28T14:40:07.652Z,4.47
2019-04-28T14:42:36.522Z,4.83
2019-04-28T14:45:06.051Z,4.33
2019-04-28T14:47:35.012Z,4.67
2019-04-28T14:50:04.423Z,5.27
2019-04-28T14:52:33.327Z,5.23
2019-04-28T14:55:02.243Z,5.70
2019-04-28T14:57:31.108Z,4.50
2019-04-28T15:00:00.027Z,4.43
2019-04-28T15:02:40.234Z,3.97
2019-04-28T15:05:33.064Z,4.10
2019-04-28T15:08:20.219Z,4.00
2019-04-28T15:11:09.834Z,4.37
2019-04-28T15:13:38.801Z,4.23
2019-04-28T15:16:07.768Z,4.50
2019-04-28T15:18:36.588Z,4.80
2019-04-28T15:21:05.579Z,4.40
2019-04-28T15:23:34.485Z,4.23
2019-04-28T15:26:03.312Z,4.43
2019-04-28T15:28:33.268Z,4.37
2019-04-28T15:31:02.094Z,4.53
2019-04-28T15:33:30.915Z,4.63
2019-04-28T15:35:59.734Z,4.37
2019-04-28T15:38:28.545Z,4.80
2019-04-28T15:40:57.399Z,5.00
2019-04-28T15:43:26.221Z,4.80
2019-04-28T15:45:55.203Z,5.30
2019-04-28T15:48:24.047Z,5.03
2019-04-28T15:50:52.880Z,4.60
2019-04-28T15:53:21.770Z,4.93
2019-04-28T15:56:05.818Z,5.40
2019-04-28T15:58:36.538Z,5.63
2019-04-28T16:01:05.771Z,5.00
2019-04-28T16:03:34.579Z,5.03
2019-04-28T16:06:03.408Z,5.10
2019-04-28T16:08:32.296Z,4.70
2019-04-28T16:11:01.131Z,4.47
2019-04-28T16:13:29.941Z,4.60
2019-04-28T16:15:58.858Z,4.53
2019-04-28T16:18:27.799Z,5.23
2019-04-28T16:20:56.709Z,5.10
2019-04-28T16:23:25.524Z,5.20
2019-04-28T16:25:54.472Z,5.30
2019-04-28T16:28:23.383Z,5.03
2019-04-28T16:30:52.263Z,5.03
2019-04-28T16:33:21.164Z,5.10
2019-04-28T16:35:49.962Z,5.00
2019-04-28T16:38:18.810Z,4.27
2019-04-28T16:40:48.181Z,4.23
2019-04-28T16:43:17.169Z,4.53
2019-04-28T16:45:46.122Z,3.87
2019-04-28T16:48:14.995Z,4.60
2019-04-28T16:50:43.811Z,4.27
2019-04-28T16:53:12.704Z,4.47
2019-04-28T16:56:03.211Z,3.80
2019-04-28T16:59:00.544Z,4.07
2019-04-28T17:01:45.360Z,4.40
2019-04-28T17:04:14.179Z,4.30
2019-04-28T17:06:43.070Z,4.30
2019-04-28T17:09:12.375Z,4.23
2019-04-28T17:11:41.978Z,4.50
2019-04-28T17:14:11.418Z,4.33
2019-04-28T17:16:40.372Z,4.40
2019-04-28T17:19:09.331Z,4.80
2019-04-28T17:21:38.283Z,4.30
2019-04-28T17:24:07.655Z,4.53
2019-04-28T17:26:36.537Z,3.93
2019-04-28T17:29:05.814Z,4.57
2019-04-28T17:31:34.884Z,4.40
2019-04-28T17:34:04.512Z,4.43
2019-04-28T17:36:33.841Z,4.17
2019-04-28T17:39:02.825Z,4.00
2019-04-28T17:41:32.610Z,4.17
2019-04-28T17:44:01.504Z,4.70
2019-04-28T17:46:30.526Z,3.83
2019-04-28T17:49:00.258Z,4.00
2019-04-28T17:51:29.579Z,4.10
2019-04-28T17:53:58.499Z,4.37
2019-04-28T17:56:27.447Z,4.40
2019-04-28T17:58:56.282Z,3.93
2019-04-28T18:01:43.138Z,4.17
2019-04-28T18:04:30.076Z,4.30
2019-04-28T18:07:05.723Z,3.87
2019-04-28T18:09:35.330Z,3.87
2019-04-28T18:12:05.838Z,3.77
2019-04-28T18:14:36.947Z,4.00
2019-04-28T18:17:17.293Z,3.77
2019-04-28T18:19:47.289Z,4.20
2019-04-28T18:22:17.107Z,4.17
2019-04-28T18:24:46.246Z,4.20
2019-04-28T18:27:15.067Z,4.60
2019-04-28T18:29:43.971Z,4.77
2019-04-28T18:32:30.528Z,4.90
2019-04-28T18:35:08.796Z,4.60
2019-04-28T18:37:59.536Z,5.03
2019-04-28T18:40:44.304Z,4.77
2019-04-28T18:43:35.414Z,4.70
2019-04-28T18:46:04.400Z,5.00
2019-04-28T18:48:36.064Z,5.50
2019-04-28T18:51:03.792Z,5.33
2019-04-28T18:53:32.610Z,5.20
2019-04-28T18:56:01.463Z,5.33
2019-04-28T18:58:30.353Z,6.27
2019-04-28T19:01:15.066Z,5.73
2019-04-28T19:04:08.000Z,5.90
2019-04-28T19:06:37.062Z,5.43
2019-04-28T19:09:24.708Z,5.23
2019-04-28T19:12:01.366Z,5.47
2019-04-28T19:14:35.131Z,5.90
2019-04-28T19:17:22.002Z,6.33
2019-04-28T19:19:50.969Z,6.43
2019-04-28T19:22:19.804Z,6.90
2019-04-28T19:24:48.711Z,7.17
2019-04-28T19:27:17.612Z,7.13
2019-04-28T19:29:46.504Z,6.00
2019-04-28T19:32:15.396Z,6.03
2019-04-28T19:34:44.272Z,6.13
2019-04-28T19:37:13.111Z,6.37
2019-04-28T19:39:41.999Z,7.47
2019-04-28T19:42:10.983Z,7.43
2019-04-28T19:44:39.879Z,7.33
2019-04-28T19:47:08.763Z,7.03
2019-04-28T19:49:37.615Z,7.70
2019-04-28T19:52:06.750Z,7.40
2019-04-28T19:54:38.207Z,7.40
2019-04-28T19:57:12.479Z,8.03
2019-04-28T19:59:59.327Z,7.27
2019-04-28T20:02:30.827Z,7.67
2019-04-28T20:04:59.626Z,6.73
2019-04-28T20:07:28.585Z,6.30
2019-04-28T20:09:57.437Z,6.60
2019-04-28T20:12:26.243Z,7.10
2019-04-28T20:14:55.090Z,7.83
2019-04-28T20:17:23.991Z,7.30
2019-04-28T20:19:52.831Z,7.63
2019-04-28T20:22:21.735Z,7.80
2019-04-28T20:24:50.675Z,8.10
2019-04-28T20:27:19.487Z,7.63
2019-04-28T20:29:48.319Z,6.80
2019-04-28T20:32:17.297Z,6.63
2019-04-28T20:34:46.215Z,7.00
2019-04-28T20:37:28.271Z,7.47
2019-04-28T20:40:01.447Z,6.97
2019-04-28T20:42:48.839Z,7.27
2019-04-28T20:45:17.899Z,9.27
2019-04-28T20:47:46.723Z,9.03
2019-04-28T20:50:15.767Z,9.30
2019-04-28T20:52:44.646Z,8.67
2019-04-28T20:55:13.633Z,9.10
2019-04-28T20:57:42.467Z,9.20
2019-04-28T21:00:11.743Z,10.47
2019-04-28T21:02:40.561Z,10.50
2019-04-28T21:05:09.658Z,10.67
2019-04-28T21:07:38.475Z,10.27
2019-04-28T21:10:07.459Z,9.57
2019-04-28T21:12:36.428Z,10.73
2019-04-28T21:15:05.512Z,8.77
2019-04-28T21:17:34.351Z,8.37
2019-04-28T21:20:03.218Z,9.30
2019-04-28T21:22:32.093Z,8.77
2019-04-28T21:25:00.948Z,8.30
2019-04-28T21:27:29.758Z,8.80
2019-04-28T21:29:58.681Z,8.00
2019-04-28T21:32:27.499Z,8.17
2019-04-28T21:34:56.387Z,8.43
2019-04-28T21:37:25.286Z,9.10
2019-04-28T21:39:54.128Z,9.00
2019-04-28T21:42:25.128Z,8.27
2019-04-28T21:45:09.618Z,8.30
2019-04-28T21:47:38.518Z,8.47
2019-04-28T21:50:07.824Z,8.80
2019-04-28T21:52:36.634Z,8.53
2019-04-28T21:55:06.248Z,8.30
2019-04-28T21:57:35.071Z,8.80
2019-04-28T22:00:06.310Z,9.20
2019-04-28T22:02:35.295Z,9.33
2019-04-28T22:05:04.643Z,10.07
2019-04-28T22:07:33.554Z,9.83
2019-04-28T22:10:02.431Z,9.07
2019-04-28T22:12:31.258Z,9.93
2019-04-28T22:15:00.070Z,9.80
2019-04-28T22:17:28.896Z,8.73
2019-04-28T22:19:57.698Z,8.70
2019-04-28T22:22:26.520Z,7.97
2019-04-28T22:25:04.219Z,7.53
2019-04-28T22:27:36.886Z,8.47
2019-04-28T22:30:07.107Z,7.77
2019-04-28T22:32:36.010Z,7.40
2019-04-28T22:35:05.294Z,7.83
2019-04-28T22:37:34.191Z,7.63
2019-04-28T22:40:03.185Z,7.57
2019-04-28T22:42:32.007Z,8.87
2019-04-28T22:45:00.810Z,8.47
2019-04-28T22:47:29.650Z,8.80
2019-04-28T22:49:58.502Z,8.77
2019-04-28T22:52:27.358Z,8.90
2019-04-28T22:55:20.263Z,9.30
2019-04-28T22:57:56.022Z,9.00
2019-04-28T23:00:43.365Z,7.40
2019-04-28T23:03:16.332Z,7.43
2019-04-28T23:05:45.279Z,8.07
2019-04-28T23:08:14.264Z,7.33
2019-04-28T23:10:43.436Z,9.00
2019-04-28T23:13:12.414Z,8.97
2019-04-28T23:15:41.386Z,7.90
2019-04-28T23:18:10.378Z,7.97
2019-04-28T23:20:41.316Z,8.37
2019-04-28T23:23:10.826Z,8.83
2019-04-28T23:25:39.658Z,9.47
2019-04-28T23:28:08.551Z,8.93
2019-04-28T23:30:41.363Z,8.77
2019-04-28T23:33:10.354Z,8.43
2019-04-28T23:35:39.192Z,8.23
2019-04-28T23:38:08.172Z,8.07
2019-04-28T23:40:38.971Z,9.10
2019-04-28T23:43:11.710Z,9.10
2019-04-28T23:45:40.600Z,9.13
2019-04-28T23:48:09.498Z,8.30
2019-04-28T23:50:49.476Z,8.37
2019-04-28T23:53:20.661Z,9.47
2019-04-28T23:55:49.526Z,9.73
2019-04-28T23:58:18.384Z,10.30
